Time;durP1;ratioP1;P1;durP2;ratioP2;P2;SDS_P1;SDS_P2;PMS_P1;PMS_P2;Temp;Humidity;BMP_temperature;BMP_pressure;BME280_temperature;BME280_humidity;BME280_pressure;Samples;Min_cycle;Max_cycle;Signal;HPM_P1;HPM_P2
2023/10/09 00:00:30;;;;;;;3.08;1.37;;;;;;;23.84;36.06;100671.56;4484505;32;33662;-73
2023/10/09 00:02:48;;;;;;;3.72;1.60;;;;;;;23.83;36.10;100678.06;4484058;32;34197;-69
2023/10/09 00:05:28;;;;;;;2.83;1.50;;;;;;;23.88;36.06;100663.81;4494306;31;33675;-70
2023/10/09 00:07:56;;;;;;;;;;;;;;;23.90;36.04;100662.53;4484069;32;34153;-75
2023/10/09 00:10:34;;;;;;;4.15;1.80;;;;;;;23.99;35.88;100655.00;4484512;32;33377;-68
2023/10/09 00:13:03;;;;;;;3.80;1.23;;;;;;;23.92;36.00;100646.84;4484621;32;34470;-68
2023/10/09 00:15:33;;;;;;;4.00;1.50;;;;;;;23.92;36.08;100651.44;4483294;32;34656;-69
2023/10/09 00:18:01;;;;;;;3.60;1.35;;;;;;;23.89;36.16;100665.50;4470579;32;33428;-68
2023/10/09 00:20:37;;;;;;;4.18;1.77;;;;;;;23.86;36.17;100649.53;4484558;32;33873;-68
2023/10/09 00:23:12;;;;;;;4.90;1.48;;;;;;;23.84;36.23;100663.41;4484401;32;34559;-68
2023/10/09 00:26:10;;;;;;;4.50;1.55;;;;;;;23.84;36.30;100651.66;4473622;32;33633;-68
2023/10/09 00:28:43;;;;;;;3.85;1.37;;;;;;;23.84;36.33;100635.31;4457245;32;33014;-68
2023/10/09 00:31:15;;;;;;;2.22;1.30;;;;;;;23.85;36.29;100636.97;4467636;32;33671;-70
2023/10/09 00:33:43;;;;;;;3.65;1.60;;;;;;;23.85;36.33;100656.88;4468506;32;34633;-69
2023/10/09 00:36:14;;;;;;;3.15;1.40;;;;;;;23.85;36.46;100645.16;4454815;32;33476;-68
2023/10/09 00:38:46;;;;;;;2.55;1.45;;;;;;;23.86;36.43;100641.38;4468755;32;33291;-69
2023/10/09 00:41:20;;;;;;;3.65;1.52;;;;;;;23.86;36.55;100638.66;4467706;32;33894;-71
2023/10/09 00:43:49;;;;;;;3.20;1.45;;;;;;;23.86;36.67;100644.09;4467528;32;34036;-68
2023/10/09 00:48:51;;;;;;;3.97;1.50;;;;;;;23.86;36.77;100636.75;4454409;32;33404;-68
2023/10/09 00:51:19;;;;;;;3.00;1.40;;;;;;;23.87;36.84;100637.59;4454672;32;32842;-69
2023/10/09 00:54:19;;;;;;;4.30;1.70;;;;;;;23.86;36.78;100628.56;4454381;32;33958;-69
2023/10/09 00:56:57;;;;;;;2.97;1.20;;;;;;;23.86;36.73;100623.13;4466260;32;33143;-68
2023/10/09 00:59:26;;;;;;;3.33;1.17;;;;;;;23.85;36.76;100635.09;4453455;32;34227;-72
2023/10/09 01:01:58;;;;;;;4.00;1.35;;;;;;;23.86;36.69;100639.47;4469930;32;33905;-71
2023/10/09 01:04:28;;;;;;;2.00;1.40;;;;;;;23.86;36.78;100642.19;4484275;32;34834;-72
2023/10/09 01:07:10;;;;;;;3.58;1.45;;;;;;;23.86;36.83;100644.94;4457065;32;33184;-71
2023/10/09 01:09:42;;;;;;;5.75;1.20;;;;;;;23.86;36.80;100650.37;4471411;32;33462;-72
2023/10/09 01:12:16;;;;;;;2.37;1.20;;;;;;;23.87;36.88;100645.78;4483951;32;34084;-73
2023/10/09 01:14:44;;;;;;;2.45;1.12;;;;;;;23.87;36.78;100634.88;4470416;32;34662;-69
2023/10/09 01:17:22;;;;;;;1.75;1.10;;;;;;;23.87;36.80;100632.97;4482227;32;33293;-70
2023/10/09 01:19:55;;;;;;;2.47;1.33;;;;;;;23.87;36.86;100634.88;4482894;32;32853;-69
2023/10/09 01:22:24;;;;;;;3.60;1.50;;;;;;;23.87;36.90;100634.88;4482580;32;34621;-69
2023/10/09 01:24:55;;;;;;;3.75;1.20;;;;;;;23.87;36.88;100643.03;4468398;32;33888;-72
2023/10/09 01:27:25;;;;;;;3.78;1.60;;;;;;;23.90;36.77;100640.75;4483622;32;33979;-68
2023/10/09 01:29:54;;;;;;;2.95;1.40;;;;;;;23.93;36.89;100645.78;4469328;32;34934;-68
2023/10/09 01:32:26;;;;;;;3.78;1.23;;;;;;;23.96;36.71;100643.69;4481427;32;33950;-69
2023/10/09 01:34:54;;;;;;;3.03;1.42;;;;;;;23.97;36.74;100653.53;4467861;32;33825;-68
2023/10/09 01:37:22;;;;;;;2.72;1.35;;;;;;;23.97;36.71;100648.94;4468077;32;34482;-68
2023/10/09 01:39:51;;;;;;;3.33;1.35;;;;;;;23.99;36.69;100646.00;4466781;32;33506;-68
2023/10/09 01:42:44;;;;;;;2.62;1.27;;;;;;;23.99;36.69;100637.81;4454017;32;33665;-68
2023/10/09 01:47:51;;;;;;;2.42;1.25;;;;;;;23.99;36.83;100635.09;4469724;32;33849;-73
2023/10/09 01:50:26;;;;;;;2.85;1.50;;;;;;;23.99;36.93;100649.56;4470116;32;34173;-70
2023/10/09 01:52:55;;;;;;;2.85;1.37;;;;;;;23.99;36.99;100654.16;4456986;32;33035;-72
2023/10/09 01:55:33;;;;;;;4.05;1.50;;;;;;;23.99;36.99;100648.72;4469091;32;33301;-73
2023/10/09 01:58:05;;;;;;;4.18;1.48;;;;;;;24.00;36.88;100653.94;4483176;32;33633;-72
2023/10/09 02:00:41;;;;;;;2.62;1.12;;;;;;;24.00;36.94;100662.12;4483652;32;34089;-71
2023/10/09 02:03:23;;;;;;;2.47;1.45;;;;;;;24.01;36.93;100665.69;4483122;32;34737;-72
2023/10/09 02:05:53;;;;;;;1.40;1.00;;;;;;;24.01;36.89;100676.59;4483147;32;33569;-74
2023/10/09 02:08:26;;;;;;;4.10;1.42;;;;;;;24.01;36.89;100666.53;4478760;32;34542;-73
2023/10/09 02:10:57;;;;;;;4.32;1.20;;;;;;;24.01;36.84;100661.06;4485462;32;34207;-74
2023/10/09 02:13:34;;;;;;;4.87;1.37;;;;;;;24.00;36.84;100648.50;4485417;32;34427;-72
2023/10/09 02:16:14;;;;;;;3.15;1.40;;;;;;;24.02;36.84;100648.31;4485259;32;33698;-73
2023/10/09 02:18:59;;;;;;;2.37;1.45;;;;;;;24.01;36.87;100644.72;4484136;32;33798;-73
2023/10/09 02:21:33;;;;;;;2.72;1.40;;;;;;;24.01;36.96;100646.59;4484368;32;32459;-73
2023/10/09 02:24:08;;;;;;;3.95;1.30;;;;;;;24.00;37.01;100631.31;4485609;32;33895;-69
2023/10/09 02:31:44;;;;;;;3.78;1.20;;;;;;;24.01;36.99;100622.91;4485112;32;33373;-72
2023/10/09 02:34:12;;;;;;;4.55;1.20;;;;;;;24.00;36.97;100640.31;4484030;32;33907;-73
2023/10/09 02:36:48;;;;;;;2.80;1.45;;;;;;;24.01;36.97;100625.62;4485186;32;34784;-72
2023/10/09 02:39:26;;;;;;;4.55;1.70;;;;;;;24.01;37.00;100628.34;4473455;32;33651;-72
2023/10/09 02:44:49;;;;;;;1.35;0.98;;;;;;;24.00;37.02;100626.69;4484077;32;33833;-72
2023/10/09 02:47:24;;;;;;;2.12;1.10;;;;;;;24.00;37.03;100628.59;4483865;32;34019;-72
2023/10/09 02:49:57;;;;;;;4.15;1.30;;;;;;;24.00;37.22;100612.22;4484949;32;34478;-69
2023/10/09 02:52:33;;;;;;;2.55;1.25;;;;;;;24.01;37.39;100601.09;4485107;32;33928;-70
2023/10/09 02:55:13;;;;;;;7.70;1.40;;;;;;;24.00;36.91;100591.25;4485115;32;33611;-68
2023/10/09 02:57:43;;;;;;;4.07;1.25;;;;;;;24.00;36.43;100593.97;4483859;32;33883;-71
2023/10/09 03:00:18;;;;;;;;;;;;;;;24.01;36.26;100589.37;4484002;32;33647;-69
2023/10/09 03:02:49;;;;;;;3.92;1.50;;;;;;;24.11;36.01;100600.69;4485068;32;34031;-73
2023/10/09 03:05:18;;;;;;;2.67;1.23;;;;;;;24.02;35.94;100612.88;4484862;32;34479;-77
2023/10/09 03:07:46;;;;;;;3.75;1.15;;;;;;;23.98;35.76;100598.81;4484886;32;34795;-76
2023/10/09 03:10:13;;;;;;;3.28;1.48;;;;;;;23.96;35.84;100606.34;4478160;32;34669;-67
2023/10/09 03:12:43;;;;;;;2.97;1.50;;;;;;;23.96;35.83;100619.97;4485058;32;34347;-75
2023/10/09 03:15:11;;;;;;;2.43;1.50;;;;;;;23.98;35.58;100609.72;4485067;32;34589;-68
2023/10/09 03:17:42;;;;;;;4.50;1.90;;;;;;;23.99;35.44;100591.47;4484937;32;34111;-75
2023/10/09 03:20:13;;;;;;;5.07;1.40;;;;;;;24.03;35.11;100590.84;4483863;32;33396;-70
2023/10/09 03:22:42;;;;;;;2.40;1.33;;;;;;;23.99;35.44;100586.03;4484920;32;33347;-75
2023/10/09 03:25:16;;;;;;;4.10;1.77;;;;;;;23.97;35.49;100583.50;4484872;32;33996;-76
2023/10/09 03:27:45;;;;;;;3.83;1.50;;;;;;;23.96;35.38;100587.28;4469336;32;33944;-73
2023/10/09 03:30:22;;;;;;;3.50;1.42;;;;;;;24.01;34.99;100579.28;4484926;32;33801;-76
2023/10/09 03:32:51;;;;;;;2.85;1.60;;;;;;;23.98;35.29;100584.34;4484956;32;33181;-67
2023/10/09 03:35:33;;;;;;;5.93;1.77;;;;;;;23.96;35.20;100575.53;4478680;32;34423;-72
2023/10/09 03:38:12;;;;;;;3.00;1.50;;;;;;;23.97;34.98;100578.06;4472031;32;33905;-75
2023/10/09 03:40:43;;;;;;;2.75;1.55;;;;;;;23.98;35.01;100581.62;4480984;32;33730;-75
2023/10/09 03:43:11;;;;;;;3.42;1.50;;;;;;;23.98;34.91;100587.91;4483398;32;32447;-73
2023/10/09 03:45:59;;;;;;;3.95;1.55;;;;;;;23.93;35.05;100602.19;4483631;32;33852;-72
2023/10/09 03:48:31;;;;;;;2.45;1.20;;;;;;;23.95;35.09;100596.50;4483223;32;34887;-73
2023/10/09 03:51:11;;;;;;;3.83;1.77;;;;;;;23.91;35.01;100590.63;4484660;32;34578;-75
2023/10/09 03:53:39;;;;;;;4.22;1.90;;;;;;;23.90;35.03;100599.03;4480381;32;33314;-69
2023/10/09 03:56:11;;;;;;;3.10;1.48;;;;;;;23.88;35.04;100588.34;4467421;32;33878;-69
2023/10/09 03:58:42;;;;;;;2.92;1.50;;;;;;;23.87;35.05;100588.53;4455410;32;34097;-72
2023/10/09 04:01:29;;;;;;;5.97;1.70;;;;;;;23.89;34.70;100584.56;4468748;32;33697;-71
2023/10/09 04:03:59;;;;;;;2.92;1.30;;;;;;;23.88;35.04;100579.34;4456616;32;32370;-71
2023/10/09 04:06:32;;;;;;;4.05;1.60;;;;;;;23.93;34.74;100577.66;4468409;32;33918;-68
2023/10/09 04:12:12;;;;;;;3.42;1.52;;;;;;;23.87;34.88;100583.91;4470457;32;33600;-72
2023/10/09 04:14:50;;;;;;;4.45;1.98;;;;;;;23.88;34.73;100587.50;4469869;32;32716;-68
2023/10/09 04:22:59;;;;;;;2.92;1.20;;;;;;;23.95;34.52;100579.31;4484530;32;33819;-68
2023/10/09 04:25:41;;;;;;;3.87;1.60;;;;;;;23.84;34.79;100578.91;4479165;32;33971;-67
2023/10/09 04:28:11;;;;;;;3.25;1.60;;;;;;;23.82;34.58;100582.87;4483501;32;33797;-76
2023/10/09 04:30:55;;;;;;;;;;;;;;;23.92;34.24;100559.63;4467612;32;34724;-76
2023/10/09 04:44:22;;;;;;;2.95;1.50;;;;;;;23.83;34.73;100552.72;4482919;32;33071;-67
2023/10/09 04:47:18;;;;;;;;;;;;;;;23.79;34.60;100553.34;4483323;32;32646;-68
2023/10/09 04:52:51;;;;;;;2.80;1.60;;;;;;;23.81;34.67;100543.06;4484256;32;34067;-66
2023/10/09 05:01:16;;;;;;;4.00;1.62;;;;;;;23.75;34.67;100542.00;4484112;32;33505;-76
2023/10/09 05:03:12;;;;;;;5.72;1.60;;;;;;;23.84;34.34;100538.03;4458437;32;34873;-68
2023/10/09 05:08:45;;;;;;;3.75;1.90;;;;;;;23.75;34.44;100519.38;4474689;32;33443;-68
2023/10/09 05:12:09;;;;;;;3.65;1.87;;;;;;;23.75;34.60;100522.09;4483203;32;33122;-74
2023/10/09 05:14:13;;;;;;;5.75;1.75;;;;;;;23.79;34.43;100515.19;4478381;32;34580;-74
2023/10/09 05:16:55;;;;;;;5.30;1.67;;;;;;;23.78;34.55;100516.22;4471320;32;34580;-76
2023/10/09 05:19:42;;;;;;;4.60;1.83;;;;;;;23.73;34.05;100525.03;4484055;32;33304;-69
2023/10/09 05:24:58;;;;;;;3.92;1.65;;;;;;;23.77;34.25;100507.22;4482505;32;34680;-75
2023/10/09 05:30:24;;;;;;;4.72;1.62;;;;;;;23.72;34.29;100520.62;4468186;32;33343;-76
2023/10/09 05:32:58;;;;;;;4.32;1.95;;;;;;;23.70;34.11;100516.47;4456870;32;34445;-75
2023/10/09 05:35:39;;;;;;;3.30;1.55;;;;;;;23.71;34.04;100512.69;4483552;32;33437;-74
2023/10/09 05:38:15;;;;;;;;;;;;;;;23.71;34.03;100504.50;4476431;32;33731;-73
2023/10/09 05:40:43;;;;;;;11.98;2.03;;;;;;;23.79;33.90;100521.47;4483784;32;33623;-73
2023/10/09 05:44:55;;;;;;;3.25;1.70;;;;;;;23.71;33.87;100518.13;4484777;32;33282;-68
2023/10/09 05:46:14;;;;;;;4.40;1.73;;;;;;;23.67;33.87;100524.00;4470701;32;34022;-66
2023/10/09 05:51:12;;;;;;;6.90;1.87;;;;;;;23.66;33.80;100555.00;4476604;32;33544;-66
2023/10/09 06:04:21;;;;;;;3.95;1.92;;;;;;;23.63;33.94;100528.16;4485218;32;33851;-74
2023/10/09 06:06:56;;;;;;;10.48;2.42;;;;;;;23.62;33.91;100529.19;4482516;32;33933;-73
2023/10/09 06:10:18;;;;;;;13.10;2.45;;;;;;;23.63;33.90;100521.87;4485288;32;33661;-72
2023/10/09 06:17:59;;;;;;;8.32;2.17;;;;;;;23.63;34.35;100502.78;4472550;31;33630;-67
2023/10/09 06:21:06;;;;;;;8.90;1.83;;;;;;;23.63;34.41;100495.44;4484027;32;32856;-68
2023/10/09 06:24:01;;;;;;;5.30;2.15;;;;;;;23.62;34.45;100488.34;4485446;32;34175;-66
2023/10/09 06:26:25;;;;;;;4.80;1.80;;;;;;;23.64;34.38;100496.31;4483200;32;34597;-66
2023/10/09 06:31:58;;;;;;;9.23;2.05;;;;;;;23.64;34.62;100497.19;4483919;32;35208;-70
2023/10/09 06:34:35;;;;;;;13.98;2.55;;;;;;;23.64;34.63;100485.41;4485304;32;33323;-71
2023/10/09 06:37:17;;;;;;;5.82;1.90;;;;;;;23.63;34.65;100483.72;4472000;32;33705;-72
2023/10/09 06:40:10;;;;;;;8.55;2.00;;;;;;;23.64;34.71;100493.59;4484365;32;34304;-71
2023/10/09 06:47:42;;;;;;;10.20;2.23;;;;;;;23.63;34.84;100491.88;4484982;32;33609;-72
2023/10/09 06:56:26;;;;;;;3.67;1.87;;;;;;;23.72;34.72;100489.81;4481153;32;32825;-67
2023/10/09 06:58:47;;;;;;;4.55;1.65;;;;;;;23.63;34.84;100478.28;4467845;32;34605;-68
2023/10/09 07:04:10;;;;;;;;;;;;;;;23.61;34.82;100474.94;4485431;32;34354;-67
2023/10/09 07:17:15;;;;;;;6.50;1.90;;;;;;;23.57;34.63;100452.72;4483375;32;33051;-67
2023/10/09 07:24:49;;;;;;;5.82;2.45;;;;;;;23.57;34.76;100446.44;4469065;32;34599;-65
2023/10/09 07:27:17;;;;;;;10.75;2.03;;;;;;;23.56;34.77;100453.78;4484708;32;33809;-67
2023/10/09 07:29:48;;;;;;;5.40;1.92;;;;;;;23.57;34.74;100458.16;4484803;32;33711;-66
2023/10/09 07:32:22;;;;;;;6.82;2.15;;;;;;;23.57;34.74;100454.59;4478378;32;34867;-65
2023/10/09 07:34:53;;;;;;;7.12;1.90;;;;;;;23.57;34.71;100435.53;4483472;32;34769;-66
2023/10/09 07:37:22;;;;;;;7.03;2.20;;;;;;;23.57;34.73;100424.66;4466200;32;33613;-67
2023/10/09 07:40:06;;;;;;;4.55;1.70;;;;;;;23.56;34.74;100409.34;4483593;32;33696;-66
2023/10/09 07:42:43;;;;;;;7.35;2.10;;;;;;;23.57;34.69;100392.78;4480076;32;32983;-65
2023/10/09 07:48:05;;;;;;;6.72;1.85;;;;;;;23.57;34.47;100370.16;4481526;32;32629;-65
2023/10/09 07:50:48;;;;;;;5.40;1.98;;;;;;;23.56;34.55;100374.78;4483367;32;35293;-68
2023/10/09 07:53:25;;;;;;;8.38;1.95;;;;;;;23.56;34.60;100363.03;4483690;32;33956;-67
2023/10/09 07:55:58;;;;;;;4.68;1.85;;;;;;;23.55;34.58;100345.87;4484392;32;33684;-67
2023/10/09 07:58:26;;;;;;;5.82;1.70;;;;;;;23.55;34.56;100332.25;4484717;32;33170;-67
2023/10/09 08:03:45;;;;;;;4.80;1.80;;;;;;;23.55;34.45;100331.38;4483667;32;33647;-67
2023/10/09 08:06:38;;;;;;;6.32;1.73;;;;;;;23.54;34.26;100324.28;4483984;32;33730;-66
2023/10/09 08:20:11;;;;;;;7.87;2.25;;;;;;;23.52;33.70;100346.28;4449237;32;33369;-67
2023/10/09 08:22:52;;;;;;;3.92;1.77;;;;;;;23.51;33.76;100328.28;4479330;32;35194;-66
2023/10/09 08:25:26;;;;;;;4.22;1.62;;;;;;;23.50;33.84;100332.06;4484264;32;34364;-66
2023/10/09 08:36:07;;;;;;;7.18;2.10;;;;;;;23.50;34.11;100320.31;4467515;32;34084;-70
2023/10/09 08:38:35;;;;;;;4.95;2.03;;;;;;;23.52;34.19;100318.22;4466903;32;33670;-70
2023/10/09 08:41:22;;;;;;;8.35;2.15;;;;;;;23.52;34.32;100310.06;4456507;32;34201;-68
2023/10/09 08:43:52;;;;;;;6.15;1.70;;;;;;;23.52;34.35;100305.44;4479909;32;33950;-69
2023/10/09 08:46:26;;;;;;;7.97;2.03;;;;;;;23.51;34.18;100303.78;4481622;32;34824;-71
2023/10/09 08:49:12;;;;;;;4.05;1.70;;;;;;;23.53;34.02;100301.66;4457390;32;33728;-67
2023/10/09 08:51:42;;;;;;;5.12;1.95;;;;;;;23.53;33.93;100304.38;4482872;32;33405;-69
2023/10/09 08:54:11;;;;;;;4.15;1.83;;;;;;;23.53;33.75;100295.38;4470104;32;32459;-71
2023/10/09 08:56:49;;;;;;;5.25;1.98;;;;;;;23.54;33.71;100289.69;4483057;32;34707;-68
2023/10/09 08:59:18;;;;;;;6.32;1.52;;;;;;;23.53;33.78;100288.03;4459390;32;33707;-71
2023/10/09 09:01:51;;;;;;;7.83;1.83;;;;;;;23.52;33.82;100293.72;4484148;32;34507;-70
2023/10/09 09:04:39;;;;;;;7.68;1.90;;;;;;;23.51;33.90;100290.16;4458316;32;33553;-69
2023/10/09 09:07:31;;;;;;;6.10;1.80;;;;;;;23.55;33.98;100285.09;4461622;32;33986;-69
2023/10/09 09:10:17;;;;;;;5.18;1.60;;;;;;;23.54;33.99;100283.41;4467855;32;32822;-71
2023/10/09 09:12:47;;;;;;;4.70;1.90;;;;;;;23.52;34.02;100274.63;4482982;32;33130;-68
2023/10/09 09:15:22;;;;;;;4.87;1.85;;;;;;;23.53;34.16;100259.97;4466464;32;33340;-68
2023/10/09 09:17:50;;;;;;;4.05;1.60;;;;;;;23.52;34.17;100252.84;4453574;32;34051;-67
2023/10/09 09:20:32;;;;;;;5.57;1.98;;;;;;;23.52;34.29;100250.13;4481925;32;34139;-71
2023/10/09 09:23:04;;;;;;;4.70;1.60;;;;;;;23.53;34.31;100258.06;4483105;32;33403;-69
2023/10/09 09:25:45;;;;;;;5.70;1.87;;;;;;;23.53;34.11;100265.41;4481951;32;34696;-69
2023/10/09 09:28:19;;;;;;;4.90;1.55;;;;;;;23.53;34.20;100271.69;4454607;32;34100;-70
2023/10/09 09:30:53;;;;;;;4.37;1.37;;;;;;;23.52;34.20;100258.28;4452679;32;34332;-69
2023/10/09 09:33:43;;;;;;;3.15;1.50;;;;;;;23.52;34.18;100267.31;4447643;32;33221;-69
2023/10/09 09:36:13;;;;;;;5.20;1.80;;;;;;;23.52;34.29;100259.12;4465418;31;32371;-67
2023/10/09 09:38:42;;;;;;;4.03;1.58;;;;;;;23.53;34.28;100257.25;4470591;32;34353;-68
2023/10/09 09:41:10;;;;;;;4.03;2.00;;;;;;;23.52;33.96;100252.84;4469832;32;34448;-71
2023/10/09 09:43:40;;;;;;;4.32;1.60;;;;;;;23.52;33.94;100255.56;4469482;32;33476;-68
2023/10/09 09:46:10;;;;;;;5.93;1.67;;;;;;;23.51;34.01;100260.19;4480099;32;34007;-69
2023/10/09 09:48:44;;;;;;;3.42;1.23;;;;;;;23.51;34.06;100254.75;4467203;32;33900;-68
2023/10/09 09:51:14;;;;;;;6.05;1.60;;;;;;;23.52;34.12;100245.50;4478436;31;33694;-69
2023/10/09 09:53:42;;;;;;;2.90;1.50;;;;;;;23.51;34.29;100235.69;4467787;32;33505;-70
2023/10/09 09:56:13;;;;;;;4.43;1.50;;;;;;;23.53;34.28;100243.63;4466065;32;32788;-69
2023/10/09 09:58:44;;;;;;;3.47;1.62;;;;;;;23.52;34.29;100237.34;4466587;32;33872;-68
2023/10/09 10:01:24;;;;;;;3.25;1.80;;;;;;;23.52;34.33;100240.06;4453170;32;34574;-69
2023/10/09 10:03:57;;;;;;;3.95;1.50;;;;;;;23.52;34.34;100234.63;4466747;32;32907;-69
2023/10/09 10:06:26;;;;;;;3.45;1.62;;;;;;;23.52;34.42;100225.62;4469172;32;33875;-67
2023/10/09 10:08:54;;;;;;;5.75;2.00;;;;;;;23.54;34.39;100228.94;4469298;32;34130;-67
2023/10/09 10:11:41;;;;;;;5.12;1.50;;;;;;;23.53;34.39;100232.72;4463808;32;33976;-70
2023/10/09 10:14:32;;;;;;;2.97;1.35;;;;;;;23.54;34.44;100210.72;4466377;32;34088;-70
2023/10/09 10:17:16;;;;;;;3.65;1.67;;;;;;;23.52;34.51;100188.31;4474384;32;33777;-71
2023/10/09 10:22:47;;;;;;;5.87;1.60;;;;;;;23.53;34.53;100134.66;4474460;32;34288;-68
2023/10/09 10:25:32;;;;;;;3.47;1.65;;;;;;;23.51;34.51;100166.75;4481744;32;34023;-72
2023/10/09 10:28:28;;;;;;;4.35;1.80;;;;;;;23.53;34.59;100161.91;4468281;32;33885;-69
2023/10/09 10:31:00;;;;;;;4.60;1.35;;;;;;;23.52;34.57;100139.28;4468748;32;33735;-68
2023/10/09 10:33:56;;;;;;;4.30;1.60;;;;;;;23.51;34.67;100128.63;4472187;32;34556;-68
2023/10/09 10:36:26;;;;;;;3.78;1.70;;;;;;;23.52;34.67;100119.38;4467944;32;33352;-68
2023/10/09 10:39:04;;;;;;;5.50;2.00;;;;;;;23.51;34.68;100121.28;4468974;32;34788;-73
2023/10/09 10:41:36;;;;;;;4.30;1.75;;;;;;;23.52;34.70;100127.56;4446535;32;33419;-67
2023/10/09 10:44:38;;;;;;;2.87;1.50;;;;;;;23.50;34.77;100119.63;4484897;32;34509;-68
2023/10/09 10:47:00;;;;;;;4.47;1.48;;;;;;;23.51;34.79;100110.38;4482843;31;33049;-69
2023/10/09 10:49:38;;;;;;;4.50;1.70;;;;;;;23.52;34.78;100092.97;4478698;32;33833;-71
2023/10/09 10:52:18;;;;;;;3.12;1.33;;;;;;;23.52;34.81;100087.53;4468426;32;33627;-68
2023/10/09 10:54:46;;;;;;;6.03;1.50;;;;;;;23.52;34.86;100092.16;4476949;32;33903;-71
2023/10/09 10:57:29;;;;;;;4.45;1.70;;;;;;;23.52;34.86;100083.97;4476979;32;33350;-69
2023/10/09 11:00:14;;;;;;;5.30;1.30;;;;;;;23.51;34.90;100077.69;4484999;32;33683;-69
2023/10/09 11:02:43;;;;;;;3.62;1.55;;;;;;;23.52;34.96;100086.72;4482454;32;33866;-71
2023/10/09 11:05:14;;;;;;;2.55;1.35;;;;;;;23.52;34.99;100087.53;4470672;32;33424;-69
2023/10/09 11:07:43;;;;;;;3.42;1.40;;;;;;;23.52;34.97;100082.09;4471905;32;33696;-69
2023/10/09 11:10:15;;;;;;;3.85;1.62;;;;;;;23.53;34.99;100061.97;4469218;32;34723;-67
2023/10/09 11:12:53;;;;;;;3.35;1.67;;;;;;;23.55;35.05;100048.13;4476816;32;33876;-68
2023/10/09 11:15:46;;;;;;;2.97;1.40;;;;;;;23.56;35.10;100028.00;4469338;32;34454;-67
2023/10/09 11:18:24;;;;;;;4.35;1.52;;;;;;;23.60;35.13;100059.22;4465565;32;34207;-69
2023/10/09 11:21:40;;;;;;;3.97;1.75;;;;;;;23.61;35.15;100086.22;4466730;32;33498;-71
2023/10/09 11:26:29;;;;;;;2.78;1.20;;;;;;;23.67;35.13;100060.84;4467477;32;33492;-72
2023/10/09 11:29:19;;;;;;;4.30;1.70;;;;;;;23.67;35.16;100060.84;4468225;32;33172;-69
2023/10/09 11:32:07;;;;;;;3.67;1.77;;;;;;;23.70;35.15;100032.31;4467584;32;34447;-70
2023/10/09 11:34:36;;;;;;;3.72;1.50;;;;;;;23.72;35.15;100057.44;4469188;32;33678;-70
2023/10/09 11:37:25;;;;;;;3.53;1.50;;;;;;;23.72;35.16;100056.63;4482937;31;33585;-69
2023/10/09 11:39:53;;;;;;;2.60;1.27;;;;;;;23.74;35.15;100058.06;4469220;32;33535;-67
2023/10/09 11:42:35;;;;;;;3.08;1.40;;;;;;;23.75;35.15;100061.63;4476916;32;33632;-68
2023/10/09 11:45:19;;;;;;;3.55;1.52;;;;;;;23.76;35.17;100077.75;4483684;32;33866;-69
2023/10/09 11:47:56;;;;;;;3.08;1.50;;;;;;;23.77;35.20;100089.47;4470012;32;33524;-69
2023/10/09 11:50:43;;;;;;;4.05;1.65;;;;;;;23.78;35.22;100093.88;4480527;32;33371;-69
2023/10/09 11:55:52;;;;;;;3.58;1.48;;;;;;;23.79;35.23;100073.75;4478868;32;34816;-71
2023/10/09 11:58:24;;;;;;;3.00;1.30;;;;;;;23.80;35.27;100080.87;4473262;32;34745;-68
2023/10/09 12:01:05;;;;;;;4.03;1.65;;;;;;;23.79;35.28;100065.59;4467584;32;34366;-67
2023/10/09 12:03:33;;;;;;;3.05;1.55;;;;;;;23.79;35.28;100050.06;4468562;32;34599;-70
2023/10/09 12:06:05;;;;;;;3.00;1.30;;;;;;;23.78;35.31;100051.13;4480994;32;34177;-69
2023/10/09 12:08:34;;;;;;;3.55;1.40;;;;;;;23.79;35.33;100046.50;4467625;32;33357;-69
2023/10/09 12:11:03;;;;;;;3.20;1.60;;;;;;;23.79;35.35;100041.88;4468394;32;33423;-69
2023/10/09 12:13:31;;;;;;;2.80;1.27;;;;;;;23.79;35.39;100049.22;4467679;32;34656;-70
2023/10/09 12:15:59;;;;;;;2.20;1.17;;;;;;;23.79;35.39;100036.44;4468363;32;34588;-73
2023/10/09 12:18:28;;;;;;;3.08;1.62;;;;;;;23.79;35.42;100016.53;4467645;32;33285;-71
2023/10/09 12:21:02;;;;;;;1.75;1.10;;;;;;;23.79;35.40;100006.47;4468091;32;33264;-71
2023/10/09 12:23:35;;;;;;;2.65;1.20;;;;;;;23.80;35.41;100004.56;4474415;32;34976;-69
2023/10/09 12:26:03;;;;;;;1.87;1.10;;;;;;;23.78;35.43;99993.91;4477993;32;34564;-70
2023/10/09 12:28:34;;;;;;;3.12;1.33;;;;;;;23.79;35.45;99994.75;4481505;32;33813;-69
2023/10/09 12:31:02;;;;;;;2.50;1.15;;;;;;;23.78;35.47;99999.34;4483879;32;33397;-69
2023/10/09 12:33:29;;;;;;;1.50;1.20;;;;;;;23.79;35.47;99997.47;4484483;32;33844;-69
2023/10/09 12:36:00;;;;;;;2.65;1.37;;;;;;;23.78;35.48;99988.47;4481421;32;34501;-70
2023/10/09 12:38:31;;;;;;;3.33;1.70;;;;;;;23.79;35.49;99978.37;4455619;32;33520;-68
2023/10/09 12:41:19;;;;;;;2.97;1.40;;;;;;;23.78;35.48;99972.13;4467775;32;33648;-72
2023/10/09 12:43:47;;;;;;;3.33;1.30;;;;;;;23.78;35.48;99963.94;4459881;32;33974;-69
2023/10/09 12:46:16;;;;;;;2.65;1.45;;;;;;;23.78;35.48;99976.69;4466888;32;34037;-69
2023/10/09 12:48:47;;;;;;;4.20;1.40;;;;;;;23.77;35.54;99986.78;4468355;32;33915;-68
2023/10/09 12:51:18;;;;;;;3.55;1.40;;;;;;;23.78;35.58;99990.31;4454529;32;33505;-69
2023/10/09 12:53:48;;;;;;;3.28;1.12;;;;;;;23.76;35.58;99993.28;4460645;32;33852;-68
2023/10/09 12:56:18;;;;;;;;;;;;;;;23.76;35.61;99987.84;4455701;32;34740;-69
2023/10/09 12:58:52;;;;;;;3.28;1.50;;;;;;;23.87;35.40;99978.06;4480655;32;34538;-70
2023/10/09 13:01:21;;;;;;;2.58;1.30;;;;;;;23.79;35.49;99964.78;4471373;32;33004;-69
2023/10/09 13:03:49;;;;;;;5.03;1.50;;;;;;;23.76;35.58;99966.03;4468528;32;34697;-69
2023/10/09 13:06:23;;;;;;;3.37;1.73;;;;;;;23.76;35.62;99959.75;4467955;32;33737;-68
2023/10/09 13:08:52;;;;;;;3.55;1.40;;;;;;;23.75;35.65;99966.28;4483014;31;33141;-69
2023/10/09 13:11:19;;;;;;;3.03;1.12;;;;;;;23.74;35.68;99957.28;4460669;32;33441;-69
2023/10/09 13:13:50;;;;;;;3.05;1.35;;;;;;;23.74;35.67;99976.34;4482494;32;34086;-70
2023/10/09 13:16:24;;;;;;;5.72;1.67;;;;;;;23.75;35.71;99975.28;4483242;32;34025;-69
2023/10/09 13:18:53;;;;;;;3.47;1.50;;;;;;;23.74;35.71;99959.16;4482571;32;33899;-68
2023/10/09 13:21:37;;;;;;;2.93;1.40;;;;;;;23.73;35.74;99955.56;4464632;32;34620;-69
2023/10/09 13:24:04;;;;;;;2.70;1.40;;;;;;;23.75;35.75;99958.94;4470649;32;33511;-67
2023/10/09 13:26:34;;;;;;;2.10;1.10;;;;;;;23.74;35.76;99959.16;4474921;32;33296;-69
2023/10/09 13:29:03;;;;;;;3.05;1.45;;;;;;;23.73;35.79;99944.69;4468500;32;33556;-69
2023/10/09 13:31:34;;;;;;;2.20;1.27;;;;;;;23.73;35.79;99952.84;4470207;32;33443;-69
2023/10/09 13:34:14;;;;;;;2.75;1.40;;;;;;;23.74;35.82;99951.00;4455598;32;33801;-68
2023/10/09 13:36:52;;;;;;;2.80;1.42;;;;;;;23.73;35.83;99952.03;4455622;32;33665;-68
2023/10/09 13:41:58;;;;;;;2.12;1.33;;;;;;;23.73;35.86;99965.66;4473275;32;34541;-69
2023/10/09 13:44:31;;;;;;;2.70;1.42;;;;;;;23.72;35.88;99958.53;4482510;32;33865;-69
2023/10/09 13:47:05;;;;;;;2.28;1.10;;;;;;;23.73;35.87;99961.03;4475077;32;34746;-68
2023/10/09 13:49:34;;;;;;;1.98;1.12;;;;;;;23.72;35.86;99955.81;4481412;32;34526;-69
2023/10/09 13:52:02;;;;;;;2.10;1.08;;;;;;;23.71;35.87;99954.97;4468437;32;33317;-68
2023/10/09 13:57:05;;;;;;;2.65;1.40;;;;;;;23.72;35.95;99950.38;4473780;32;33827;-67
2023/10/09 13:59:35;;;;;;;2.85;1.35;;;;;;;23.72;35.94;99944.91;4466384;32;33651;-69
2023/10/09 14:02:09;;;;;;;1.98;1.20;;;;;;;23.71;35.96;99941.34;4475121;32;33350;-68
2023/10/09 14:04:38;;;;;;;2.78;1.58;;;;;;;23.71;35.94;99940.53;4484175;32;33588;-69
2023/10/09 14:07:06;;;;;;;2.03;1.00;;;;;;;23.71;35.96;99927.75;4484611;32;33921;-69
2023/10/09 14:12:21;;;;;;;2.92;1.30;;;;;;;23.70;36.01;99923.34;4476288;32;33044;-71
2023/10/09 14:14:49;;;;;;;1.77;1.02;;;;;;;23.69;36.02;99913.53;4468232;32;33079;-70
2023/10/09 14:17:23;;;;;;;5.85;1.60;;;;;;;23.70;36.06;99919.81;4468236;32;34713;-71
2023/10/09 14:19:52;;;;;;;2.50;1.33;;;;;;;23.68;36.07;99920.84;4456345;32;33059;-71
2023/10/09 14:22:26;;;;;;;1.92;1.12;;;;;;;23.70;36.07;99917.06;4464660;32;33381;-68
2023/10/09 14:24:57;;;;;;;4.55;1.30;;;;;;;23.68;36.08;99920.00;4471728;32;33910;-72